createdAt,value
2023-01-22T00:00:27.476Z,-0.75
2023-01-22T00:05:31.247Z,-0.69
2023-01-22T00:10:34.952Z,-0.70
2023-01-22T00:15:41.065Z,-0.80
2023-01-22T00:20:48.429Z,-0.76
2023-01-22T00:26:00.846Z,-0.76
2023-01-22T00:31:07.431Z,-0.80
2023-01-22T00:36:13.291Z,-0.89
2023-01-22T00:41:19.158Z,-0.90
2023-01-22T00:46:24.334Z,-0.87
2023-01-22T00:51:28.088Z,-0.89
2023-01-22T00:56:31.853Z,-0.93
2023-01-22T01:01:37.396Z,-0.96
2023-01-22T01:06:41.329Z,-0.96
2023-01-22T01:11:45.305Z,-0.98
2023-01-22T01:16:51.479Z,-0.94
2023-01-22T01:21:55.298Z,-0.92
2023-01-22T01:26:59.703Z,-0.86
2023-01-22T01:32:05.046Z,-0.88
2023-01-22T01:37:08.790Z,-0.84
2023-01-22T01:42:12.873Z,-0.86
2023-01-22T01:47:32.049Z,-0.87
2023-01-22T01:52:35.879Z,-0.97
2023-01-22T01:57:41.629Z,-1.00
2023-01-22T02:02:47.072Z,-1.06
2023-01-22T02:07:51.288Z,-1.16
2023-01-22T02:12:58.395Z,-1.19
2023-01-22T02:18:03.918Z,-1.26
2023-01-22T02:23:09.313Z,-1.34
2023-01-22T02:28:14.284Z,-1.38
2023-01-22T02:33:18.665Z,-1.39
2023-01-22T02:38:23.827Z,-1.45
2023-01-22T02:43:27.674Z,-1.49
2023-01-22T02:48:31.523Z,-1.52
2023-01-22T02:53:36.716Z,-1.53
2023-01-22T02:58:41.328Z,-1.59
2023-01-22T03:03:45.615Z,-1.57
2023-01-22T03:08:53.407Z,-1.61
2023-01-22T03:14:15.186Z,-1.67
2023-01-22T03:19:36.613Z,-1.72
2023-01-22T03:24:43.663Z,-1.69
2023-01-22T03:29:47.651Z,-1.73
2023-01-22T03:34:53.770Z,-1.79
2023-01-22T03:40:00.195Z,-1.77
2023-01-22T03:45:08.170Z,-1.79
2023-01-22T03:50:12.500Z,-1.80
2023-01-22T03:55:19.303Z,-1.82
2023-01-22T04:00:23.400Z,-1.85
2023-01-22T04:05:27.337Z,-1.90
2023-01-22T04:10:32.422Z,-1.86
2023-01-22T04:15:38.237Z,-1.88
2023-01-22T04:20:43.359Z,-1.84
2023-01-22T04:25:49.450Z,-1.83
2023-01-22T04:30:55.944Z,-1.80
2023-01-22T04:36:01.216Z,-1.78
2023-01-22T04:41:06.765Z,-1.75
2023-01-22T04:46:10.648Z,-1.78
2023-01-22T04:51:14.614Z,-1.79
2023-01-22T04:56:19.931Z,-1.75
2023-01-22T05:01:23.907Z,-1.76
2023-01-22T05:06:27.833Z,-1.77
2023-01-22T05:11:33.112Z,-1.69
2023-01-22T05:16:37.777Z,-1.57
2023-01-22T05:21:41.530Z,-1.49
2023-01-22T05:26:46.725Z,-1.44
2023-01-22T05:31:50.789Z,-1.39
2023-01-22T05:36:57.419Z,-1.33
2023-01-22T05:42:03.220Z,-1.32
2023-01-22T05:47:07.443Z,-1.24
2023-01-22T05:52:11.448Z,-1.18
2023-01-22T05:57:17.372Z,-1.10
2023-01-22T06:02:21.207Z,-1.06
2023-01-22T06:07:26.989Z,-1.04
2023-01-22T06:12:32.113Z,-1.04
2023-01-22T06:17:35.910Z,-1.08
2023-01-22T06:22:39.843Z,-1.02
2023-01-22T06:27:45.166Z,-0.97
2023-01-22T06:32:48.911Z,-0.98
2023-01-22T06:37:53.002Z,-0.93
2023-01-22T06:42:58.230Z,-0.96
2023-01-22T06:48:02.012Z,-0.89
2023-01-22T06:53:05.874Z,-0.89
2023-01-22T06:58:11.078Z,-0.90
2023-01-22T07:03:14.804Z,-0.89
2023-01-22T07:08:18.471Z,-0.86
2023-01-22T07:13:23.825Z,-0.84
2023-01-22T07:18:27.647Z,-0.88
2023-01-22T07:23:31.764Z,-0.88
2023-01-22T07:28:36.945Z,-0.86
2023-01-22T07:33:40.775Z,-0.84
2023-01-22T07:38:44.519Z,-0.81
2023-01-22T07:43:50.285Z,-0.80
2023-01-22T07:48:54.039Z,-0.75
2023-01-22T07:53:57.819Z,-0.74
2023-01-22T07:59:02.900Z,-0.72
2023-01-22T08:04:07.383Z,-0.69
2023-01-22T08:09:11.089Z,-0.67
2023-01-22T08:14:16.178Z,-0.67
2023-01-22T08:19:19.915Z,-0.64
2023-01-22T08:24:23.652Z,-0.63
2023-01-22T08:29:28.761Z,-0.61
2023-01-22T08:34:32.507Z,-0.58
2023-01-22T08:39:36.266Z,-0.63
2023-01-22T08:44:41.340Z,-0.58
2023-01-22T08:49:45.082Z,-0.58
2023-01-22T08:54:48.858Z,-0.52
2023-01-22T09:00:00.999Z,-0.52
2023-01-22T09:05:05.919Z,-0.51
2023-01-22T09:10:12.917Z,-0.46
2023-01-22T09:15:18.132Z,-0.44
2023-01-22T09:20:21.949Z,-0.35
2023-01-22T09:25:26.284Z,-0.25
2023-01-22T09:30:32.185Z,-0.18
2023-01-22T09:35:35.977Z,-0.17
2023-01-22T09:40:44.405Z,-0.08
2023-01-22T09:45:54.224Z,-0.01
2023-01-22T09:50:58.023Z,0.05
2023-01-22T09:56:05.662Z,0.10
2023-01-22T10:01:11.098Z,0.09
2023-01-22T10:06:18.338Z,0.13
2023-01-22T10:11:22.112Z,0.12
2023-01-22T10:16:27.424Z,0.13
2023-01-22T10:21:33.389Z,0.23
2023-01-22T10:26:40.253Z,0.31
2023-01-22T10:31:51.729Z,0.40
2023-01-22T10:36:56.403Z,0.39
2023-01-22T10:42:02.843Z,0.39
2023-01-22T10:47:20.481Z,0.37
2023-01-22T10:52:28.625Z,0.37
2023-01-22T10:57:34.014Z,0.39
2023-01-22T11:02:43.394Z,0.38
2023-01-22T11:07:48.818Z,0.45
2023-01-22T11:12:59.700Z,0.47
2023-01-22T11:18:07.224Z,0.43
2023-01-22T11:23:19.075Z,0.39
2023-01-22T11:28:41.719Z,0.40
2023-01-22T11:34:04.677Z,0.34
2023-01-22T11:39:22.072Z,0.35
2023-01-22T11:44:49.129Z,0.34
2023-01-22T11:50:06.605Z,0.37
2023-01-22T11:55:24.764Z,0.38
2023-01-22T12:00:41.163Z,0.42
2023-01-22T12:05:53.047Z,0.51
2023-01-22T12:11:17.748Z,0.55
2023-01-22T12:16:28.900Z,0.57
2023-01-22T12:21:50.075Z,0.62
2023-01-22T12:27:02.293Z,0.68
2023-01-22T12:32:10.931Z,0.69
2023-01-22T12:37:20.685Z,0.76
2023-01-22T12:42:32.254Z,0.83
2023-01-22T12:47:42.941Z,0.91
2023-01-22T12:52:59.388Z,0.95
2023-01-22T12:58:04.448Z,0.93
2023-01-22T13:03:31.712Z,0.88
2023-01-22T13:08:41.888Z,0.88
2023-01-22T13:13:50.259Z,0.84
2023-01-22T13:18:55.877Z,0.82
2023-01-22T13:24:05.012Z,0.84
2023-01-22T13:29:21.027Z,0.86
2023-01-22T13:34:25.252Z,0.84
2023-01-22T13:39:33.559Z,0.84
2023-01-22T13:44:40.201Z,0.81
2023-01-22T13:49:44.548Z,0.82
2023-01-22T13:55:03.471Z,0.85
2023-01-22T14:00:22.518Z,0.83
2023-01-22T14:05:27.837Z,0.83
2023-01-22T14:10:33.093Z,0.84
2023-01-22T14:15:38.050Z,0.89
2023-01-22T14:20:42.718Z,0.89
2023-01-22T14:25:49.555Z,0.87
2023-01-22T14:30:53.352Z,0.91
2023-01-22T14:35:57.827Z,0.83
2023-01-22T14:41:06.137Z,0.87
2023-01-22T14:46:09.958Z,0.88
2023-01-22T14:51:14.104Z,0.82
2023-01-22T14:56:19.213Z,0.85
2023-01-22T15:01:24.431Z,0.84
2023-01-22T15:06:28.165Z,0.84
2023-01-22T15:11:33.280Z,0.85
2023-01-22T15:16:38.344Z,0.88
2023-01-22T15:21:42.189Z,0.76
2023-01-22T15:26:47.370Z,0.80
2023-01-22T15:31:51.202Z,0.78
2023-01-22T15:36:55.128Z,0.78
2023-01-22T15:42:00.363Z,0.79
2023-01-22T15:47:04.180Z,0.77
2023-01-22T15:52:07.931Z,0.75
2023-01-22T15:57:13.085Z,0.75
2023-01-22T16:02:19.520Z,0.74
2023-01-22T16:07:23.348Z,0.76
2023-01-22T16:12:30.201Z,0.75
2023-01-22T16:17:34.157Z,0.75
2023-01-22T16:22:37.847Z,0.74
2023-01-22T16:27:42.928Z,0.71
2023-01-22T16:32:46.668Z,0.71
2023-01-22T16:37:50.401Z,0.71
2023-01-22T16:42:59.606Z,0.68
2023-01-22T16:48:03.304Z,0.71
2023-01-22T16:53:07.061Z,0.71
2023-01-22T16:58:12.194Z,0.71
2023-01-22T17:03:15.905Z,0.70
2023-01-22T17:08:19.652Z,0.74
2023-01-22T17:13:24.834Z,0.75
2023-01-22T17:18:28.597Z,0.75
2023-01-22T17:23:32.487Z,0.72
2023-01-22T17:28:39.552Z,0.72
2023-01-22T17:33:44.216Z,0.73
2023-01-22T17:38:47.924Z,0.71
2023-01-22T17:43:55.937Z,0.71
2023-01-22T17:49:01.014Z,0.68
2023-01-22T17:54:06.076Z,0.68
2023-01-22T17:59:13.115Z,0.71
2023-01-22T18:04:16.999Z,0.70
2023-01-22T18:09:21.483Z,0.69
2023-01-22T18:14:30.269Z,0.69
2023-01-22T18:19:34.021Z,0.70
2023-01-22T18:24:37.760Z,0.69
2023-01-22T18:29:42.872Z,0.71
2023-01-22T18:34:46.897Z,0.72
2023-01-22T18:39:50.741Z,0.74
2023-01-22T18:44:56.519Z,0.73
2023-01-22T18:50:00.236Z,0.71
2023-01-22T18:55:04.356Z,0.71
2023-01-22T19:00:13.320Z,0.73
2023-01-22T19:05:17.524Z,0.70
2023-01-22T19:10:23.173Z,0.71
2023-01-22T19:15:28.272Z,0.69
2023-01-22T19:20:32.275Z,0.71
2023-01-22T19:25:36.066Z,0.71
2023-01-22T19:30:41.234Z,0.71
2023-01-22T19:35:49.489Z,0.70
2023-01-22T19:40:54.670Z,0.69
2023-01-22T19:46:02.972Z,0.70
2023-01-22T19:51:09.041Z,0.71
2023-01-22T19:56:18.963Z,0.69
2023-01-22T20:01:24.167Z,0.71
2023-01-22T20:06:28.540Z,0.73
2023-01-22T20:11:32.624Z,0.75
2023-01-22T20:16:37.695Z,0.73
2023-01-22T20:21:41.429Z,0.75
2023-01-22T20:26:45.655Z,0.76
2023-01-22T20:31:53.445Z,0.77
2023-01-22T20:36:57.430Z,0.77
2023-01-22T20:42:01.194Z,0.79
2023-01-22T20:47:06.535Z,0.76
2023-01-22T20:52:10.313Z,0.79
2023-01-22T20:57:14.065Z,0.81
2023-01-22T21:02:19.195Z,0.81
2023-01-22T21:07:22.905Z,0.82
2023-01-22T21:12:27.251Z,0.80
2023-01-22T21:17:32.460Z,0.80
2023-01-22T21:22:37.277Z,0.80
2023-01-22T21:27:41.053Z,0.79
2023-01-22T21:32:50.568Z,0.80
2023-01-22T21:37:54.338Z,0.80
2023-01-22T21:43:15.815Z,0.81
2023-01-22T21:48:20.958Z,0.83
2023-01-22T21:53:24.693Z,0.81
2023-01-22T21:58:28.421Z,0.80
2023-01-22T22:03:34.953Z,0.83
2023-01-22T22:08:40.166Z,0.83
2023-01-22T22:13:43.894Z,0.84
2023-01-22T22:18:49.137Z,0.85
2023-01-22T22:23:52.924Z,0.87
2023-01-22T22:28:56.751Z,0.87
2023-01-22T22:34:02.066Z,0.86
2023-01-22T22:39:07.347Z,0.86
2023-01-22T22:44:11.647Z,0.87
2023-01-22T22:49:16.760Z,0.87
2023-01-22T22:54:20.965Z,0.86
2023-01-22T22:59:24.721Z,0.87
2023-01-22T23:04:29.827Z,0.84
2023-01-22T23:09:33.953Z,0.87
2023-01-22T23:14:37.677Z,0.85
2023-01-22T23:19:42.799Z,0.87
2023-01-22T23:24:47.224Z,0.87
2023-01-22T23:29:52.083Z,0.86
2023-01-22T23:34:57.316Z,0.87
2023-01-22T23:40:01.028Z,0.89
2023-01-22T23:45:05.540Z,0.89
2023-01-22T23:50:11.612Z,0.89
2023-01-22T23:55:15.935Z,0.90
